Pfafftown, North Carolina
Current Conditions -  °F | °C
As of 4:54 AM on Thursday 23 Oct 2014 (Local Time) from KINT Reporting Station
Clear Clear  
Wind Chill: 47°   Ceiling: Unl
Heat Index: 49°   Visibility: 10mi
Dew Point: 38°   Wind: 6mph
Humidity: 66%   Direction: NA
Pressure: 30.06"   Gusts: NA
Location:  36.17°N, 80.38°W
Report Text: KINT 230854Z AUTO VRB05KT 10SM CLR 09/03 A3006 RMK AO2 SLP174 T00940033 55001
Loading
Personal Weather Stations






























Interactive Weather Map
Tropical Storm Tracking
New forecast layout! Learn more

10-Day Weather Forecast

Advertisements
Track Severe Weather on mobile